Hillsdale, Kansas
Current Conditions -  °F | °C
As of 6:53 AM on Saturday 22 Nov 2014 (Local Time) from KIXD Reporting Station
Haze Haze  
Wind Chill: 53°   Ceiling: 200
Heat Index: 53°   Visibility: 2mi
Dew Point: 53°   Wind: 10mph
Humidity: 100%   Direction: 190°S
Pressure: 29.97"   Gusts: NA
Location:  38.66°N, 94.85°W
Report Text: KIXD 221253Z 19009KT 2SM BR OVC002 12/12 A2997 RMK AO2 SLP150 T01170117
Loading
Personal Weather Stations






























Interactive Weather Map New forecast layout! Learn more

10-Day Weather Forecast

Advertisements
Track Severe Weather on mobile